Česky Dansk Deutsch English Español Suomi Français Magyar Italiano Nederlands norsk Polski Português svenska Türkçe

 

Het Weer

Montes Claros (Brazilië)

03:00, 27 juli 2016 (GMT)

NWNNE
WE
SWSSE
Home            
Montes Claros Belo Horizonte Aeroporto Belo Horizonte Vitoria Da Conquista Bom Jesus Da Lapa Brasilia Aeroporto Gama Caravelas Barbacena Porto Seguro Uberlandia Vitoria Aeroporto Anapolis Braz-Afb Uberaba Ilheus Aeroporto Juiz De Fora Goiania Aeroporto Campos Pocos De Caldas Leite Lopes / Ribeir Resende Macae Galeao

Om een weerknop op uw website of weblog te plaatsen, copieer onderstaande code en plak die in uw pagina. In het eerste vakje staat HTML-code, in het tweede vakje UBB-code.


Add to Google

Details

Visibility:Greater than 10000 m, 10 km, 32800 ft, 6.2 miles
Clouds:CAVOC
Temperature:18°C, 64°F
Dew-point:10°C, 50°F
Atmospheric pressure:1021 hPa, 765.8 mmHg, 30.15 inHg, 1.008 atm
Relative humidity:59.5 %
METAR:SBMK 270300Z 00000KT CAVOK 18/10 Q1021

Snelkoppelingen

Actuele weersinformatie van de hele wereld. Voeg locaties toe met het plus (+) symbool. Deze snelkoppelingen kunnen worden toegevoegd aan Google.

Lid van de Technetium groep

website free tracking
StatCounter NetStat W3C Validator

10-08-2020 04:16:15
astro.technetium.be money.technetium.be phote.technetium.be tafeltennistafel.technetium.be www.ligfiets.net